Terminal Aerodrome Forecast
Issued by NWS Sioux Falls, SD

Home | Current Version | Previous Version | Text Only | Print | Product List | Glossary Off
Versions: 1 2 3 4 5 6 7 8 9 10 11 12 13 14 15 16 17 18

502
FTUS43 KFSD 212320
TAFFSD
TAF
KFSD 212320Z 2200/2224 30005KT P6SM OVC011
     FM220430 31005KT 4SM BR BKN008
     FM220800 31006KT 2SM BR OVC003
     FM221500 31008KT P6SM OVC003
     FM221600 31011KT P6SM OVC008
     FM222300 31009KT P6SM OVC010=

USA.gov is the U.S. government's official web portal to all federal, state and local government web resources and services.